createdAt,value
2024-03-06T00:00:23.941Z,2.72
2024-03-06T00:02:50.659Z,2.82
2024-03-06T00:05:17.560Z,2.82
2024-03-06T00:07:44.317Z,2.86
2024-03-06T00:10:11.049Z,2.71
2024-03-06T00:12:37.748Z,2.28
2024-03-06T00:15:04.964Z,2.60
2024-03-06T00:17:32.457Z,2.70
2024-03-06T00:19:59.214Z,2.62
2024-03-06T00:22:25.925Z,2.68
2024-03-06T00:24:53.222Z,2.62
2024-03-06T00:27:19.997Z,2.63
2024-03-06T00:29:46.792Z,2.60
2024-03-06T00:32:13.595Z,2.42
2024-03-06T00:34:40.845Z,2.25
2024-03-06T00:37:07.558Z,2.16
2024-03-06T00:39:34.185Z,1.95
2024-03-06T00:42:00.891Z,2.01
2024-03-06T00:44:27.616Z,2.02
2024-03-06T00:46:54.444Z,2.05
2024-03-06T00:49:21.346Z,1.99
2024-03-06T00:51:49.608Z,2.07
2024-03-06T00:54:17.870Z,2.05
2024-03-06T00:56:45.280Z,2.09
2024-03-06T00:59:12.350Z,1.99
2024-03-06T01:01:39.269Z,1.85
2024-03-06T01:04:06.127Z,1.97
2024-03-06T01:06:32.967Z,1.91
2024-03-06T01:08:59.936Z,1.69
2024-03-06T01:11:30.452Z,1.67
2024-03-06T01:13:57.238Z,1.59
2024-03-06T01:16:23.942Z,1.47
2024-03-06T01:18:50.662Z,1.51
2024-03-06T01:21:17.430Z,1.55
2024-03-06T01:23:44.721Z,1.53
2024-03-06T01:26:12.677Z,1.53
2024-03-06T01:28:39.665Z,1.53
2024-03-06T01:31:07.784Z,1.47
2024-03-06T01:33:34.656Z,1.38
2024-03-06T01:36:01.682Z,1.51
2024-03-06T01:38:28.368Z,1.65
2024-03-06T01:40:55.166Z,1.66
2024-03-06T01:43:24.120Z,1.42
2024-03-06T01:45:51.636Z,1.47
2024-03-06T01:48:21.521Z,1.51
2024-03-06T01:50:48.317Z,1.61
2024-03-06T01:53:17.989Z,1.49
2024-03-06T01:55:44.740Z,1.26
2024-03-06T01:58:11.749Z,1.25
2024-03-06T02:00:38.818Z,1.25
2024-03-06T02:03:05.695Z,1.26
2024-03-06T02:05:33.588Z,1.26
2024-03-06T02:08:00.998Z,1.45
2024-03-06T02:10:31.322Z,1.14
2024-03-06T02:12:59.216Z,1.49
2024-03-06T02:15:28.452Z,1.28
2024-03-06T02:17:55.166Z,1.39
2024-03-06T02:20:24.529Z,1.18
2024-03-06T02:22:51.657Z,1.09
2024-03-06T02:25:20.386Z,1.13
2024-03-06T02:27:49.676Z,1.20
2024-03-06T02:30:20.179Z,1.06
2024-03-06T02:32:46.940Z,1.35
2024-03-06T02:35:15.256Z,1.40
2024-03-06T02:37:45.089Z,1.35
2024-03-06T02:40:11.934Z,1.60
2024-03-06T02:42:40.207Z,1.72
2024-03-06T02:45:08.832Z,1.72
2024-03-06T02:47:35.661Z,1.71
2024-03-06T02:50:02.483Z,1.68
2024-03-06T02:52:29.275Z,1.53
2024-03-06T02:54:56.433Z,1.40
2024-03-06T02:57:23.099Z,1.20
2024-03-06T02:59:51.088Z,1.07
2024-03-06T03:02:17.967Z,1.11
2024-03-06T03:04:45.222Z,1.21
2024-03-06T03:07:11.986Z,1.39
2024-03-06T03:09:40.017Z,1.53
2024-03-06T03:12:07.206Z,1.47
2024-03-06T03:14:34.291Z,1.58
2024-03-06T03:17:04.884Z,1.54
2024-03-06T03:19:31.695Z,1.48
2024-03-06T03:21:59.113Z,1.19
2024-03-06T03:24:28.804Z,0.87
2024-03-06T03:26:55.465Z,0.78
2024-03-06T03:29:22.314Z,0.74
2024-03-06T03:31:59.101Z,0.73
2024-03-06T03:34:25.996Z,0.69
2024-03-06T03:36:52.666Z,0.47
2024-03-06T03:39:23.240Z,0.56
2024-03-06T03:41:50.691Z,0.51
2024-03-06T03:44:20.318Z,0.53
2024-03-06T03:46:47.545Z,0.39
2024-03-06T03:49:14.387Z,0.44
2024-03-06T03:51:42.498Z,0.64
2024-03-06T03:54:09.186Z,0.93
2024-03-06T03:56:36.228Z,1.11
2024-03-06T03:59:03.099Z,1.07
2024-03-06T04:01:29.812Z,1.17
2024-03-06T04:03:56.827Z,1.28
2024-03-06T04:06:23.768Z,1.29
2024-03-06T04:08:50.511Z,1.26
2024-03-06T04:11:17.536Z,1.21
2024-03-06T04:13:44.582Z,1.29
2024-03-06T04:16:11.411Z,1.05
2024-03-06T04:18:39.385Z,1.25
2024-03-06T04:21:06.726Z,1.16
2024-03-06T04:23:34.219Z,1.25
2024-03-06T04:26:01.636Z,1.16
2024-03-06T04:28:28.646Z,0.89
2024-03-06T04:30:55.403Z,1.01
2024-03-06T04:33:22.125Z,0.91
2024-03-06T04:35:48.913Z,0.95
2024-03-06T04:38:15.738Z,1.11
2024-03-06T04:40:42.607Z,1.22
2024-03-06T04:43:09.540Z,1.33
2024-03-06T04:45:36.260Z,1.43
2024-03-06T04:48:03.017Z,1.37
2024-03-06T04:50:29.806Z,0.90
2024-03-06T04:52:57.475Z,1.07
2024-03-06T04:55:26.356Z,0.73
2024-03-06T04:57:54.813Z,0.61
2024-03-06T05:00:23.586Z,0.69
2024-03-06T06:00:32.674Z,1.18
2024-03-06T06:02:59.362Z,1.30
2024-03-06T06:05:26.243Z,1.56
2024-03-06T06:07:52.971Z,1.39
2024-03-06T06:10:21.874Z,1.52
2024-03-06T06:12:50.446Z,1.77
2024-03-06T06:15:17.389Z,1.75
2024-03-06T06:17:45.985Z,1.52
2024-03-06T06:20:17.067Z,1.46
2024-03-06T06:22:44.729Z,1.70
2024-03-06T06:25:11.951Z,1.71
2024-03-06T06:27:39.763Z,1.96
2024-03-06T06:30:08.342Z,1.93
2024-03-06T06:32:35.833Z,2.05
2024-03-06T06:35:03.011Z,2.18
2024-03-06T06:37:29.787Z,2.33
2024-03-06T06:39:56.610Z,2.23
2024-03-06T06:42:23.373Z,2.19
2024-03-06T06:44:50.048Z,2.39
2024-03-06T06:47:18.389Z,2.34
2024-03-06T06:49:46.001Z,2.33
2024-03-06T06:52:22.191Z,2.43
2024-03-06T06:54:49.896Z,2.58
2024-03-06T06:57:16.779Z,2.69
2024-03-06T06:59:43.623Z,2.81
2024-03-06T07:02:10.332Z,3.13
2024-03-06T07:04:37.444Z,3.45
2024-03-06T07:07:04.158Z,4.43
2024-03-06T07:09:31.872Z,5.83
2024-03-06T07:11:58.753Z,8.01
2024-03-06T07:14:25.529Z,9.79
2024-03-06T07:16:52.554Z,11.48
2024-03-06T07:19:19.516Z,12.19
2024-03-06T07:21:46.703Z,12.20
2024-03-06T07:24:14.898Z,12.61
2024-03-06T07:26:41.663Z,13.68
2024-03-06T07:29:14.352Z,14.12
2024-03-06T07:31:41.962Z,14.41
2024-03-06T07:34:09.561Z,14.06
2024-03-06T07:36:36.299Z,15.76
2024-03-06T07:39:04.605Z,16.77
2024-03-06T07:41:33.847Z,17.77
2024-03-06T07:44:01.530Z,17.63
2024-03-06T07:46:28.320Z,17.48
2024-03-06T07:48:56.056Z,17.14
2024-03-06T07:51:22.745Z,16.94
2024-03-06T07:53:51.859Z,16.91
2024-03-06T07:56:18.830Z,16.56
2024-03-06T07:58:45.589Z,18.05
2024-03-06T08:01:12.475Z,16.31
2024-03-06T08:03:41.607Z,16.91
2024-03-06T08:06:08.282Z,14.14
2024-03-06T08:08:35.649Z,14.08
2024-03-06T08:11:02.881Z,15.54
2024-03-06T08:13:30.316Z,17.19
2024-03-06T08:15:56.986Z,16.03
2024-03-06T08:18:29.629Z,15.97
2024-03-06T08:20:56.466Z,15.15
2024-03-06T08:23:24.652Z,13.99
2024-03-06T08:25:51.445Z,12.62
2024-03-06T08:28:18.154Z,12.20
2024-03-06T08:30:47.677Z,12.17
2024-03-06T08:33:14.483Z,11.20
2024-03-06T08:35:41.330Z,10.56
2024-03-06T08:38:09.232Z,10.36
2024-03-06T08:40:36.146Z,10.57
2024-03-06T08:43:02.827Z,10.19
2024-03-06T08:45:29.594Z,11.52
2024-03-06T08:47:56.506Z,10.93
2024-03-06T08:50:23.306Z,11.52
2024-03-06T08:52:50.521Z,13.08
2024-03-06T08:55:17.834Z,12.12
2024-03-06T08:57:44.755Z,12.72
2024-03-06T09:00:12.613Z,13.18
2024-03-06T09:02:44.095Z,14.25
2024-03-06T09:05:13.420Z,12.87
2024-03-06T09:07:44.100Z,12.04
2024-03-06T09:10:14.242Z,10.95
2024-03-06T09:12:42.166Z,10.32
2024-03-06T09:15:10.122Z,9.43
2024-03-06T09:17:37.103Z,9.41
2024-03-06T09:20:11.723Z,9.25
2024-03-06T09:22:43.500Z,9.19
2024-03-06T09:25:10.980Z,9.14
2024-03-06T09:27:44.546Z,9.50
2024-03-06T09:30:11.832Z,11.36
2024-03-06T09:32:39.380Z,13.58
2024-03-06T09:35:07.845Z,14.67
2024-03-06T09:37:34.571Z,14.96
2024-03-06T09:40:01.198Z,15.30
2024-03-06T09:42:28.109Z,13.97
2024-03-06T09:44:56.338Z,13.63
2024-03-06T09:47:25.737Z,12.55
2024-03-06T09:49:57.226Z,11.97
2024-03-06T09:52:26.417Z,11.43
2024-03-06T09:54:56.085Z,11.00
2024-03-06T09:57:22.917Z,11.02
2024-03-06T09:59:49.764Z,10.95
2024-03-06T10:02:35.762Z,10.90
2024-03-06T10:05:02.753Z,12.27
2024-03-06T10:07:29.521Z,11.99
2024-03-06T10:09:57.040Z,12.24
2024-03-06T10:12:24.164Z,11.79
2024-03-06T10:14:54.037Z,11.34
2024-03-06T10:17:25.185Z,10.82
2024-03-06T10:19:53.290Z,10.62
2024-03-06T10:22:25.800Z,10.07
2024-03-06T10:24:59.701Z,9.89
2024-03-06T10:27:27.487Z,11.74
2024-03-06T10:30:12.258Z,13.61
2024-03-06T10:32:39.128Z,14.11
2024-03-06T10:35:07.804Z,14.37
2024-03-06T10:37:35.679Z,13.38
2024-03-06T10:40:07.286Z,14.28
2024-03-06T10:42:34.350Z,14.80
2024-03-06T10:45:02.744Z,15.16
2024-03-06T10:47:30.273Z,14.63
2024-03-06T10:50:01.564Z,15.11
2024-03-06T10:52:29.080Z,16.48
2024-03-06T10:55:00.047Z,15.59
2024-03-06T10:57:28.325Z,14.56
2024-03-06T10:59:55.882Z,13.08
2024-03-06T11:02:24.949Z,11.95
2024-03-06T11:04:53.250Z,11.22
2024-03-06T11:07:20.479Z,10.81
2024-03-06T11:09:50.188Z,10.45
2024-03-06T11:12:40.111Z,10.09
2024-03-06T11:15:12.022Z,9.52
2024-03-06T11:17:39.324Z,9.35
2024-03-06T11:20:10.358Z,9.74
2024-03-06T11:22:57.408Z,9.72
2024-03-06T11:25:52.328Z,11.03
2024-03-06T11:28:30.300Z,11.35
2024-03-06T11:31:08.165Z,13.17
2024-03-06T11:33:39.815Z,13.01
2024-03-06T11:36:20.084Z,13.04
2024-03-06T11:38:57.240Z,12.29
2024-03-06T11:41:26.582Z,11.84
2024-03-06T11:43:54.685Z,10.80
2024-03-06T11:46:22.453Z,10.71
2024-03-06T11:48:57.189Z,10.33
2024-03-06T11:51:24.780Z,10.01
2024-03-06T11:53:52.556Z,9.87
2024-03-06T11:56:20.807Z,9.97
2024-03-06T11:58:50.597Z,9.94
2024-03-06T12:01:19.718Z,10.16
2024-03-06T12:03:48.313Z,9.97
2024-03-06T12:06:18.341Z,10.15
2024-03-06T12:08:45.155Z,9.91
2024-03-06T12:11:12.095Z,9.65
2024-03-06T12:13:38.933Z,9.08
2024-03-06T12:16:08.431Z,8.63
2024-03-06T12:18:36.621Z,8.54
2024-03-06T12:21:06.150Z,9.50
2024-03-06T12:23:33.685Z,9.74
2024-03-06T12:26:10.401Z,9.75
2024-03-06T12:28:38.518Z,9.60
2024-03-06T12:31:05.933Z,9.62
2024-03-06T12:33:35.968Z,9.65
2024-03-06T12:36:04.859Z,9.45
2024-03-06T12:38:31.863Z,9.63
2024-03-06T12:40:59.818Z,9.27
2024-03-06T12:43:27.128Z,9.43
2024-03-06T12:45:58.020Z,9.11
2024-03-06T12:48:27.353Z,9.14
2024-03-06T12:50:55.481Z,9.39
2024-03-06T12:53:23.256Z,9.39
2024-03-06T12:55:50.193Z,9.41
2024-03-06T12:58:19.048Z,9.60
2024-03-06T13:00:45.843Z,9.99
2024-03-06T13:03:12.553Z,10.35
2024-03-06T13:05:39.542Z,10.28
2024-03-06T13:08:06.604Z,10.35
2024-03-06T13:10:33.371Z,10.57
2024-03-06T13:13:00.050Z,10.60
2024-03-06T13:15:26.697Z,10.47
2024-03-06T13:17:53.531Z,10.37
2024-03-06T13:20:21.064Z,10.30
2024-03-06T13:22:47.822Z,10.45
2024-03-06T13:25:14.604Z,10.11
2024-03-06T13:27:41.299Z,10.32
2024-03-06T13:30:09.439Z,9.61
2024-03-06T13:32:36.445Z,9.28
2024-03-06T13:35:03.562Z,8.70
2024-03-06T13:37:39.647Z,8.44
2024-03-06T13:40:08.424Z,8.12
2024-03-06T13:42:36.345Z,8.09
2024-03-06T13:45:04.562Z,7.95
2024-03-06T13:47:31.578Z,7.91
2024-03-06T13:49:58.288Z,7.84
2024-03-06T13:52:25.015Z,7.55
2024-03-06T13:54:52.800Z,7.40
2024-03-06T13:57:19.688Z,7.28
2024-03-06T13:59:46.512Z,7.17
2024-03-06T14:02:13.516Z,7.07
2024-03-06T14:04:40.297Z,7.01
2024-03-06T14:07:08.620Z,6.95
2024-03-06T14:09:35.448Z,6.93
2024-03-06T14:12:03.113Z,6.88
2024-03-06T14:14:30.263Z,6.39
2024-03-06T14:16:57.109Z,6.50
2024-03-06T14:19:23.833Z,6.46
2024-03-06T14:21:50.761Z,6.62
2024-03-06T14:24:19.716Z,6.65
2024-03-06T14:26:46.443Z,6.59
2024-03-06T14:29:15.607Z,6.33
2024-03-06T14:31:42.817Z,6.25
2024-03-06T14:34:09.542Z,6.28
2024-03-06T14:36:36.554Z,6.34
2024-03-06T14:39:04.210Z,6.47
2024-03-06T14:41:33.446Z,6.46
2024-03-06T14:44:00.235Z,6.49
2024-03-06T14:46:26.993Z,6.44
2024-03-06T14:48:53.697Z,6.32
2024-03-06T14:51:20.422Z,6.35
2024-03-06T14:53:47.134Z,6.41
2024-03-06T14:56:13.918Z,6.54
2024-03-06T14:58:40.800Z,6.56
2024-03-06T15:01:07.540Z,6.55
2024-03-06T15:03:34.692Z,6.32
2024-03-06T15:06:01.478Z,6.39
2024-03-06T15:08:33.744Z,6.35
2024-03-06T15:11:01.112Z,6.34
2024-03-06T15:13:27.838Z,6.31
2024-03-06T15:15:54.662Z,6.07
2024-03-06T15:18:21.956Z,6.05
2024-03-06T15:20:49.052Z,6.05
2024-03-06T15:23:18.926Z,6.30
2024-03-06T15:25:45.745Z,6.38
2024-03-06T15:28:12.478Z,6.43
2024-03-06T15:30:39.484Z,6.29
2024-03-06T15:33:09.989Z,6.40
2024-03-06T15:35:36.771Z,6.43
2024-03-06T15:38:04.994Z,6.18
2024-03-06T15:40:33.097Z,6.20
2024-03-06T15:43:00.116Z,6.32
2024-03-06T15:45:26.817Z,6.47
2024-03-06T15:47:53.609Z,6.42
2024-03-06T15:50:20.499Z,6.42
2024-03-06T15:52:47.748Z,6.42
2024-03-06T15:55:14.586Z,6.42
2024-03-06T15:57:41.301Z,6.17
2024-03-06T16:00:10.790Z,6.27
2024-03-06T16:02:39.832Z,6.10
2024-03-06T16:05:09.649Z,6.36
2024-03-06T16:07:42.252Z,6.39
2024-03-06T16:10:13.933Z,6.25
2024-03-06T16:12:40.587Z,6.19
2024-03-06T16:15:07.903Z,6.29
2024-03-06T16:17:36.070Z,6.08
2024-03-06T16:20:06.233Z,5.78
2024-03-06T16:22:33.755Z,5.67
2024-03-06T16:25:00.515Z,5.73
2024-03-06T16:27:27.191Z,5.74
2024-03-06T16:29:53.894Z,5.74
2024-03-06T16:32:22.001Z,5.63
2024-03-06T16:34:48.725Z,5.72
2024-03-06T16:37:16.028Z,5.92
2024-03-06T16:39:42.802Z,5.75
2024-03-06T16:42:09.779Z,5.66
2024-03-06T16:44:36.571Z,5.49
2024-03-06T16:47:04.862Z,5.56
2024-03-06T16:49:31.573Z,5.69
2024-03-06T16:52:00.013Z,5.63
2024-03-06T16:54:28.502Z,5.50
2024-03-06T16:56:55.655Z,5.44
2024-03-06T16:59:23.449Z,5.46
2024-03-06T17:01:52.674Z,5.37
2024-03-06T17:04:20.585Z,5.38
2024-03-06T17:06:47.229Z,5.37
2024-03-06T17:09:14.766Z,5.46
2024-03-06T17:11:45.093Z,5.44
2024-03-06T17:14:12.586Z,5.53
2024-03-06T17:16:39.288Z,5.33
2024-03-06T17:19:07.085Z,5.09
2024-03-06T17:21:37.948Z,5.08
2024-03-06T17:24:06.107Z,5.04
2024-03-06T17:26:38.805Z,5.08
2024-03-06T17:29:06.989Z,5.00
2024-03-06T17:31:37.271Z,5.03
2024-03-06T17:34:07.214Z,5.12
2024-03-06T17:36:37.347Z,5.00
2024-03-06T17:39:10.246Z,5.02
2024-03-06T17:41:40.043Z,4.95
2024-03-06T17:44:06.786Z,4.87
2024-03-06T17:46:33.579Z,5.21
2024-03-06T17:49:00.936Z,5.27
2024-03-06T17:51:33.121Z,5.29
2024-03-06T17:53:59.924Z,5.32
2024-03-06T17:56:28.975Z,5.42
2024-03-06T17:58:57.329Z,5.37
2024-03-06T18:01:26.756Z,5.37
2024-03-06T18:03:59.553Z,5.38
2024-03-06T18:06:26.450Z,5.29
2024-03-06T18:08:54.633Z,5.07
2024-03-06T18:11:22.895Z,4.85
2024-03-06T18:13:52.360Z,5.02
2024-03-06T18:16:21.239Z,5.10
2024-03-06T18:18:48.226Z,5.12
2024-03-06T18:21:17.320Z,4.94
2024-03-06T18:23:45.121Z,5.02
2024-03-06T18:26:12.379Z,4.82
2024-03-06T18:28:51.867Z,4.72
2024-03-06T18:31:18.755Z,4.63
2024-03-06T18:33:45.529Z,4.63
2024-03-06T18:36:13.250Z,4.52
2024-03-06T18:38:41.358Z,4.57
2024-03-06T18:41:09.265Z,4.55
2024-03-06T18:43:35.918Z,4.46
2024-03-06T18:46:04.726Z,4.84
2024-03-06T18:48:33.519Z,4.71
2024-03-06T18:51:00.296Z,4.59
2024-03-06T18:53:27.135Z,4.54
2024-03-06T18:55:53.887Z,4.51
2024-03-06T18:58:22.951Z,4.40
2024-03-06T19:00:51.249Z,4.32
2024-03-06T19:03:18.254Z,4.38
2024-03-06T19:05:45.154Z,4.27
2024-03-06T19:08:12.143Z,4.31
2024-03-06T19:10:38.950Z,4.43
2024-03-06T19:13:06.158Z,4.58
2024-03-06T19:15:33.481Z,4.47
2024-03-06T19:18:00.389Z,4.45
2024-03-06T19:20:27.419Z,4.46
2024-03-06T19:22:54.176Z,4.27
2024-03-06T19:25:21.101Z,4.21
2024-03-06T19:27:48.365Z,4.27
2024-03-06T19:30:26.318Z,4.55
2024-03-06T19:32:55.604Z,4.55
2024-03-06T19:35:25.720Z,4.69
2024-03-06T19:37:54.263Z,4.75
2024-03-06T19:40:21.020Z,4.85
2024-03-06T19:42:49.050Z,4.87
2024-03-06T19:45:17.182Z,5.03
2024-03-06T19:47:44.007Z,4.78
2024-03-06T19:50:13.486Z,4.82
2024-03-06T19:52:49.509Z,4.94
2024-03-06T19:55:16.755Z,4.58
2024-03-06T19:57:43.637Z,4.65
2024-03-06T20:00:12.604Z,4.68
2024-03-06T20:02:40.097Z,4.67
2024-03-06T20:05:08.102Z,4.45
2024-03-06T20:07:35.761Z,4.58
2024-03-06T20:10:02.772Z,4.68
2024-03-06T20:12:29.948Z,4.54
2024-03-06T20:14:56.825Z,4.52
2024-03-06T20:17:23.600Z,4.59
2024-03-06T20:19:55.405Z,4.78
2024-03-06T20:22:25.512Z,4.81
2024-03-06T20:24:53.293Z,4.76
2024-03-06T20:27:20.250Z,4.67
2024-03-06T20:29:47.583Z,4.75
2024-03-06T20:32:17.156Z,4.37
2024-03-06T20:34:44.108Z,4.37
2024-03-06T20:37:10.832Z,4.50
2024-03-06T20:39:37.656Z,4.48
2024-03-06T20:42:07.615Z,4.43
2024-03-06T20:44:34.480Z,4.59
2024-03-06T20:47:02.500Z,4.66
2024-03-06T20:49:29.413Z,4.37
2024-03-06T20:51:56.693Z,4.36
2024-03-06T20:54:24.234Z,4.25
2024-03-06T20:56:52.063Z,4.33
2024-03-06T20:59:21.242Z,4.36
2024-03-06T21:01:48.007Z,4.47
2024-03-06T21:04:16.733Z,4.29
2024-03-06T21:06:43.970Z,4.41
2024-03-06T21:09:11.763Z,4.46
2024-03-06T21:11:43.827Z,4.50
2024-03-06T21:14:10.625Z,4.58
2024-03-06T21:16:37.489Z,4.70
2024-03-06T21:19:04.137Z,4.71
2024-03-06T21:21:30.850Z,4.57
2024-03-06T21:23:57.924Z,4.40
2024-03-06T21:26:25.891Z,4.54
2024-03-06T21:28:55.088Z,4.64
2024-03-06T21:31:24.379Z,4.69
2024-03-06T21:33:52.325Z,4.64
2024-03-06T21:36:20.110Z,4.64
2024-03-06T21:38:46.809Z,4.66
2024-03-06T21:41:15.542Z,4.65
2024-03-06T21:43:42.899Z,4.59
2024-03-06T21:46:14.721Z,4.35
2024-03-06T21:48:41.471Z,4.40
2024-03-06T21:51:10.262Z,4.55
2024-03-06T21:53:39.007Z,4.58
2024-03-06T21:56:06.048Z,4.45
2024-03-06T21:58:32.765Z,4.43
2024-03-06T22:00:59.419Z,4.33
2024-03-06T22:03:26.890Z,4.13
2024-03-06T22:05:55.223Z,4.06
2024-03-06T22:08:21.973Z,3.93
2024-03-06T22:10:48.716Z,4.07
2024-03-06T22:13:16.139Z,4.26
2024-03-06T22:15:42.856Z,4.33
2024-03-06T22:18:09.763Z,4.38
2024-03-06T22:20:36.588Z,4.34
2024-03-06T22:23:03.460Z,4.45
2024-03-06T22:25:30.446Z,4.53
2024-03-06T22:27:57.147Z,4.46
2024-03-06T22:30:26.686Z,4.34
2024-03-06T22:32:53.502Z,4.24
2024-03-06T22:35:20.502Z,4.10
2024-03-06T22:37:47.303Z,3.95
2024-03-06T22:40:14.165Z,3.99
2024-03-06T22:42:41.302Z,4.28
2024-03-06T22:45:08.568Z,4.32
2024-03-06T22:47:36.715Z,4.45
2024-03-06T22:50:11.804Z,4.47
2024-03-06T22:52:38.726Z,4.47
2024-03-06T22:55:08.073Z,4.45
2024-03-06T22:57:35.582Z,4.26
2024-03-06T23:00:06.456Z,4.15
2024-03-06T23:02:33.534Z,4.24
2024-03-06T23:05:00.386Z,4.21
2024-03-06T23:07:27.134Z,4.17
2024-03-06T23:09:53.837Z,3.98
2024-03-06T23:12:20.704Z,3.92
2024-03-06T23:14:47.646Z,3.98
2024-03-06T23:17:14.869Z,3.88
2024-03-06T23:19:41.595Z,3.92
2024-03-06T23:22:08.281Z,4.15
2024-03-06T23:24:35.046Z,4.21
2024-03-06T23:27:01.819Z,4.17
2024-03-06T23:29:28.541Z,4.13
2024-03-06T23:31:55.296Z,4.04
2024-03-06T23:34:21.933Z,4.26
2024-03-06T23:36:48.748Z,4.35
2024-03-06T23:39:15.638Z,4.26
2024-03-06T23:41:42.376Z,4.38
2024-03-06T23:44:09.305Z,4.40
2024-03-06T23:46:36.008Z,4.42
2024-03-06T23:49:04.267Z,4.10
2024-03-06T23:51:30.984Z,4.19
2024-03-06T23:53:57.709Z,4.22
2024-03-06T23:56:25.248Z,4.19
2024-03-06T23:58:51.937Z,3.92
